Time;durP1;ratioP1;P1;durP2;ratioP2;P2;SDS_P1;SDS_P2;PMS_P1;PMS_P2;Temp;Humidity;BMP_temperature;BMP_pressure;BME280_temperature;BME280_humidity;BME280_pressure;Samples;Min_cycle;Max_cycle;Signal;HPM_P1;HPM_P2
2023/04/15 00:01:02;;;;;;;3.45;1.33;;;9.10;99.90;;;;;;5028044;28;20390;-74
2023/04/15 00:03:29;;;;;;;2.40;1.00;;;9.10;99.90;;;;;;5023435;28;20045;-74
2023/04/15 00:05:57;;;;;;;2.05;1.20;;;9.20;99.90;;;;;;5022234;28;20053;-74
2023/04/15 00:08:24;;;;;;;2.22;1.02;;;9.20;99.90;;;;;;5025246;28;20464;-73
2023/04/15 00:10:51;;;;;;;3.08;1.17;;;9.20;99.90;;;;;;5023260;28;20112;-75
2023/04/15 00:13:18;;;;;;;1.48;0.90;;;9.30;99.90;;;;;;5023153;28;20128;-74
2023/04/15 00:15:45;;;;;;;3.00;1.10;;;9.30;99.90;;;;;;5020652;28;20156;-74
2023/04/15 00:18:11;;;;;;;1.15;0.80;;;9.30;99.90;;;;;;5016667;28;20085;-74
2023/04/15 00:20:38;;;;;;;3.42;0.85;;;9.40;99.90;;;;;;5023998;28;20045;-75
2023/04/15 00:23:05;;;;;;;1.98;0.70;;;9.40;99.90;;;;;;5027353;28;20056;-74
2023/04/15 00:25:31;;;;;;;3.08;0.98;;;9.40;99.90;;;;;;5026474;28;20509;-74
2023/04/15 00:27:58;;;;;;;3.30;0.80;;;9.40;99.90;;;;;;5021356;28;20049;-74
2023/04/15 00:30:25;;;;;;;2.10;0.77;;;9.40;99.90;;;;;;5025048;28;20134;-74
2023/04/15 00:32:52;;;;;;;1.92;0.63;;;9.50;99.90;;;;;;5020341;28;20050;-74
2023/04/15 00:35:19;;;;;;;1.80;0.70;;;9.50;99.90;;;;;;5020997;28;20081;-74
2023/04/15 00:37:46;;;;;;;0.90;0.65;;;9.50;99.90;;;;;;5025601;28;20347;-74
2023/04/15 00:40:16;;;;;;;3.13;0.50;;;9.50;99.90;;;;;;5018726;28;20502;-74
2023/04/15 00:42:44;;;;;;;;;;;9.50;99.90;;;;;;5023648;28;20049;-74
2023/04/15 00:45:11;;;;;;;2.83;0.70;;;9.50;99.90;;;;;;5031153;28;19928;-74
2023/04/15 00:47:41;;;;;;;1.35;0.60;;;9.50;99.90;;;;;;5029519;28;20052;-74
2023/04/15 00:50:08;;;;;;;1.67;0.77;;;9.50;99.90;;;;;;5022475;28;20081;-73
2023/04/15 00:52:36;;;;;;;2.05;0.70;;;9.50;99.90;;;;;;5024466;28;20084;-74
2023/04/15 00:55:03;;;;;;;2.50;0.90;;;9.50;99.90;;;;;;5023263;28;20052;-74
2023/04/15 00:57:30;;;;;;;4.30;0.73;;;9.50;99.90;;;;;;5029943;28;20078;-74
2023/04/15 00:59:57;;;;;;;2.00;0.63;;;9.50;99.90;;;;;;5023968;28;20217;-74
2023/04/15 01:02:24;;;;;;;0.93;0.60;;;9.50;99.90;;;;;;5020521;28;20523;-74
2023/04/15 01:04:51;;;;;;;1.80;0.60;;;9.50;99.90;;;;;;5018424;28;20052;-74
2023/04/15 01:07:18;;;;;;;1.80;0.65;;;9.50;99.90;;;;;;5025333;28;20136;-74
2023/04/15 01:09:45;;;;;;;2.38;0.80;;;9.50;99.90;;;;;;5026073;28;20060;-75
2023/04/15 01:12:14;;;;;;;2.10;0.90;;;9.50;99.90;;;;;;5024354;28;20050;-74
2023/04/15 01:14:41;;;;;;;2.08;0.88;;;9.50;99.90;;;;;;5022922;28;20128;-74
2023/04/15 01:17:08;;;;;;;0.70;0.50;;;9.60;99.90;;;;;;5023243;28;20077;-74
2023/04/15 01:19:37;;;;;;;0.80;0.75;;;9.60;99.90;;;;;;5020134;28;20136;-74
2023/04/15 01:22:04;;;;;;;2.55;1.17;;;9.60;99.90;;;;;;5020643;28;20054;-74
2023/04/15 01:24:32;;;;;;;3.35;1.20;;;9.70;99.90;;;;;;5025421;28;20046;-74
2023/04/15 01:26:59;;;;;;;2.47;0.85;;;9.70;99.90;;;;;;5015874;28;20470;-73
2023/04/15 01:29:26;;;;;;;1.50;1.00;;;9.70;99.90;;;;;;5024818;28;20092;-74
2023/04/15 01:31:54;;;;;;;1.92;0.77;;;9.70;99.90;;;;;;5020074;28;20057;-75
2023/04/15 01:34:21;;;;;;;1.55;0.90;;;9.70;99.90;;;;;;5026859;28;20141;-73
2023/04/15 01:36:48;;;;;;;2.35;1.05;;;9.70;99.90;;;;;;5025000;28;20527;-74
2023/04/15 01:39:15;;;;;;;1.23;0.57;;;9.80;99.90;;;;;;5025665;28;20045;-74
2023/04/15 01:41:41;;;;;;;1.42;0.70;;;9.80;99.90;;;;;;5018574;28;20128;-74
2023/04/15 01:44:08;;;;;;;1.95;0.68;;;9.80;99.90;;;;;;5016493;28;20462;-74
2023/04/15 01:46:35;;;;;;;2.15;0.88;;;9.80;99.90;;;;;;5023832;28;20132;-74
2023/04/15 01:49:02;;;;;;;1.65;0.50;;;9.80;99.90;;;;;;5016141;28;20111;-74
2023/04/15 01:51:29;;;;;;;1.08;0.57;;;9.80;99.90;;;;;;5018547;28;20053;-74
2023/04/15 01:53:56;;;;;;;1.90;0.70;;;9.80;99.90;;;;;;5022374;28;20141;-74
2023/04/15 01:56:23;;;;;;;1.73;0.65;;;9.80;99.90;;;;;;5015394;28;20513;-74
2023/04/15 01:58:50;;;;;;;2.70;1.05;;;9.80;99.90;;;;;;5023461;28;20115;-74
2023/04/15 02:01:18;;;;;;;1.17;0.70;;;9.80;99.90;;;;;;5024948;28;20041;-74
2023/04/15 02:03:46;;;;;;;4.28;0.80;;;9.80;99.90;;;;;;5021908;28;20045;-73
2023/04/15 02:06:14;;;;;;;5.65;1.38;;;9.80;99.90;;;;;;5019548;28;20081;-74
2023/04/15 02:08:40;;;;;;;2.72;1.00;;;9.80;99.90;;;;;;5024091;28;20072;-74
2023/04/15 02:11:08;;;;;;;2.70;0.70;;;9.80;99.90;;;;;;5018342;28;20417;-74
2023/04/15 02:13:35;;;;;;;1.70;0.80;;;9.80;99.90;;;;;;5017381;28;20501;-74
2023/04/15 02:16:02;;;;;;;4.22;0.80;;;9.80;99.90;;;;;;5022701;28;20054;-74
2023/04/15 02:18:29;;;;;;;2.28;0.65;;;9.80;99.90;;;;;;5017217;28;20112;-73
2023/04/15 02:20:57;;;;;;;3.10;0.80;;;9.80;99.90;;;;;;5029177;28;20077;-74
2023/04/15 02:23:24;;;;;;;0.88;0.60;;;9.80;99.90;;;;;;5025667;28;20053;-75
2023/04/15 02:25:51;;;;;;;3.45;0.80;;;9.80;99.90;;;;;;5027273;28;20099;-73
2023/04/15 02:28:20;;;;;;;1.60;0.77;;;9.80;99.90;;;;;;5019601;28;20092;-74
2023/04/15 02:30:51;;;;;;;1.65;0.65;;;9.80;99.90;;;;;;5022142;28;20080;-74
2023/04/15 02:33:19;;;;;;;1.60;0.63;;;9.80;99.90;;;;;;5020973;28;20054;-74
2023/04/15 02:35:46;;;;;;;1.45;0.60;;;9.80;99.90;;;;;;5017576;28;20140;-74
2023/04/15 02:38:15;;;;;;;5.15;1.17;;;9.80;99.90;;;;;;5040342;28;20035;-74
2023/04/15 02:40:42;;;;;;;3.22;0.80;;;9.80;99.90;;;;;;5049973;28;20060;-73
2023/04/15 02:43:08;;;;;;;2.53;0.70;;;9.80;99.90;;;;;;5044673;28;20056;-75
2023/04/15 02:45:35;;;;;;;2.47;0.60;;;9.80;99.90;;;;;;5051711;28;20050;-73
2023/04/15 02:48:05;;;;;;;2.25;0.80;;;9.80;99.90;;;;;;5039957;28;20489;-74
2023/04/15 02:50:32;;;;;;;7.55;0.90;;;9.80;99.90;;;;;;5022542;28;20099;-74
2023/04/15 02:53:00;;;;;;;4.93;1.00;;;9.80;99.90;;;;;;5021517;28;20099;-74
2023/04/15 02:55:27;;;;;;;1.02;0.77;;;9.80;99.90;;;;;;5023079;28;20137;-74
2023/04/15 02:57:54;;;;;;;1.73;0.80;;;9.80;99.90;;;;;;5018077;28;20045;-75
2023/04/15 03:00:24;;;;;;;1.88;0.70;;;9.80;99.90;;;;;;5020822;28;20048;-74
2023/04/15 03:02:55;;;;;;;2.22;1.15;;;9.80;99.90;;;;;;5025793;28;20041;-74
2023/04/15 03:05:25;;;;;;;6.32;1.35;;;9.80;99.90;;;;;;5028003;28;20053;-74
2023/04/15 03:07:52;;;;;;;2.95;0.85;;;9.80;99.90;;;;;;5023864;28;20057;-74
2023/04/15 03:10:19;;;;;;;2.83;1.10;;;9.80;99.90;;;;;;5023677;28;20136;-74
2023/04/15 03:12:46;;;;;;;2.38;0.95;;;9.90;99.90;;;;;;5026306;28;20057;-73
2023/04/15 03:15:13;;;;;;;1.38;0.85;;;9.90;99.90;;;;;;5024753;28;20109;-74
2023/04/15 03:17:40;;;;;;;1.15;0.82;;;9.90;99.90;;;;;;5028729;28;20571;-74
2023/04/15 03:20:08;;;;;;;1.38;0.70;;;9.90;99.90;;;;;;5024565;28;20050;-75
2023/04/15 03:22:35;;;;;;;0.95;0.80;;;9.90;99.90;;;;;;5023525;28;20073;-74
2023/04/15 03:25:01;;;;;;;2.13;0.95;;;9.90;99.90;;;;;;5022986;28;20041;-74
2023/04/15 03:27:28;;;;;;;2.42;1.13;;;9.90;99.90;;;;;;5020456;28;20088;-74
2023/04/15 03:29:55;;;;;;;3.63;1.40;;;9.90;99.90;;;;;;5027093;28;20136;-73
2023/04/15 03:32:22;;;;;;;1.60;0.93;;;9.90;99.90;;;;;;5025087;28;20053;-74
2023/04/15 03:34:49;;;;;;;3.63;1.00;;;9.90;99.90;;;;;;5018450;28;20050;-74
2023/04/15 03:37:15;;;;;;;3.85;1.00;;;9.90;99.90;;;;;;5024569;28;20050;-74
2023/04/15 03:39:42;;;;;;;4.32;1.23;;;9.90;99.90;;;;;;5029106;28;20084;-74
2023/04/15 03:42:09;;;;;;;7.07;2.30;;;9.90;99.90;;;;;;5027888;28;20137;-74
2023/04/15 03:44:36;;;;;;;3.88;1.50;;;9.90;99.90;;;;;;5023499;28;20078;-74
2023/04/15 03:47:02;;;;;;;1.90;1.15;;;9.90;99.90;;;;;;5023148;28;20050;-74
2023/04/15 03:49:29;;;;;;;3.50;1.30;;;9.90;99.90;;;;;;5023746;28;20058;-74
2023/04/15 03:51:56;;;;;;;4.05;1.08;;;9.90;99.90;;;;;;5043601;23;20049;-81
2023/04/15 03:54:22;;;;;;;3.83;1.08;;;9.90;99.90;;;;;;5032842;28;20053;-82
2023/04/15 03:56:49;;;;;;;2.15;0.98;;;9.80;99.90;;;;;;5031306;28;20046;-79
2023/04/15 03:59:16;;;;;;;1.55;0.80;;;9.80;99.90;;;;;;5028362;28;20138;-79
2023/04/15 04:01:43;;;;;;;2.08;1.02;;;9.80;99.90;;;;;;5030767;28;20140;-81
2023/04/15 04:04:10;;;;;;;2.95;0.98;;;9.80;99.90;;;;;;5027948;28;20046;-81
2023/04/15 04:06:37;;;;;;;4.07;1.00;;;9.80;99.90;;;;;;5031757;28;20117;-81
2023/04/15 04:09:03;;;;;;;4.63;1.58;;;9.80;99.90;;;;;;5020626;28;20050;-80
2023/04/15 04:11:31;;;;;;;6.80;1.60;;;9.80;99.90;;;;;;5021597;28;20088;-80
2023/04/15 04:13:58;;;;;;;3.05;1.25;;;9.80;99.90;;;;;;5026050;28;20049;-81
2023/04/15 04:16:25;;;;;;;2.22;1.20;;;9.80;99.90;;;;;;5030064;28;20052;-79
2023/04/15 04:18:52;;;;;;;4.90;1.83;;;9.80;99.90;;;;;;5029136;28;20046;-79
2023/04/15 04:21:19;;;;;;;2.58;1.10;;;9.80;99.90;;;;;;5026531;28;20042;-79
2023/04/15 04:23:46;;;;;;;3.25;1.30;;;9.80;99.90;;;;;;5031998;28;20124;-77
2023/04/15 04:26:13;;;;;;;2.45;1.30;;;9.80;99.90;;;;;;5036080;28;20068;-81
2023/04/15 04:28:40;;;;;;;3.70;1.30;;;9.80;99.90;;;;;;5033035;28;20127;-81
2023/04/15 04:31:06;;;;;;;4.50;1.30;;;9.70;99.90;;;;;;5031561;28;20099;-79
2023/04/15 04:33:33;;;;;;;3.70;1.42;;;9.70;99.90;;;;;;5039913;28;20128;-80
2023/04/15 04:36:00;;;;;;;4.25;1.30;;;9.80;99.90;;;;;;5035969;28;20159;-78
2023/04/15 04:38:27;;;;;;;3.55;1.40;;;9.70;99.90;;;;;;5031842;28;20497;-79
2023/04/15 04:40:53;;;;;;;3.53;1.27;;;9.70;99.90;;;;;;5030078;28;20103;-79
2023/04/15 04:43:20;;;;;;;4.40;1.67;;;9.70;99.90;;;;;;5033370;28;20080;-80
2023/04/15 04:45:47;;;;;;;4.88;1.42;;;9.70;99.90;;;;;;5027429;28;20444;-80
2023/04/15 04:48:14;;;;;;;3.83;1.40;;;9.70;99.90;;;;;;5027628;28;20054;-79
2023/04/15 04:50:41;;;;;;;4.00;1.60;;;9.60;99.90;;;;;;5029946;28;20144;-78
2023/04/15 04:53:07;;;;;;;3.50;1.58;;;9.60;99.90;;;;;;5036291;28;20141;-80
2023/04/15 04:55:35;;;;;;;2.50;1.10;;;9.60;99.90;;;;;;5028353;28;20056;-79
2023/04/15 04:58:02;;;;;;;3.55;1.63;;;9.60;99.90;;;;;;5029321;28;20439;-81
2023/04/15 05:00:29;;;;;;;5.82;3.10;;;9.60;99.90;;;;;;5035038;28;20037;-78
2023/04/15 05:02:56;;;;;;;8.77;3.60;;;9.60;99.90;;;;;;5030561;28;20144;-79
2023/04/15 05:05:23;;;;;;;9.57;2.72;;;9.60;99.90;;;;;;5029022;28;20049;-79
2023/04/15 05:07:50;;;;;;;5.63;1.55;;;9.60;99.90;;;;;;5034867;28;20132;-81
2023/04/15 05:10:17;;;;;;;2.65;1.20;;;9.60;99.90;;;;;;5029626;28;20046;-79
2023/04/15 05:12:44;;;;;;;4.68;1.38;;;9.60;99.90;;;;;;5022601;28;20069;-80
2023/04/15 05:15:11;;;;;;;7.38;1.83;;;9.60;99.90;;;;;;5029244;28;20132;-81
2023/04/15 05:17:37;;;;;;;2.03;1.23;;;9.60;99.90;;;;;;5025873;28;20049;-79
2023/04/15 05:20:05;;;;;;;3.30;1.10;;;9.60;99.90;;;;;;5029843;28;20126;-79
2023/04/15 05:22:31;;;;;;;4.55;0.90;;;9.60;99.90;;;;;;5034257;28;20103;-80
2023/04/15 05:24:58;;;;;;;4.22;1.00;;;9.60;99.90;;;;;;5028281;28;20549;-81
2023/04/15 05:27:25;;;;;;;2.75;1.02;;;9.70;99.90;;;;;;5024782;28;20054;-80
2023/04/15 05:29:52;;;;;;;3.75;1.40;;;9.60;99.90;;;;;;5024144;28;20087;-78
2023/04/15 05:32:18;;;;;;;3.75;1.10;;;9.70;99.90;;;;;;5027531;28;20124;-81
2023/04/15 05:34:45;;;;;;;5.30;1.35;;;9.70;99.90;;;;;;5026034;28;20069;-80
2023/04/15 05:37:12;;;;;;;3.60;1.40;;;9.70;99.90;;;;;;5020134;28;20117;-80
2023/04/15 05:39:39;;;;;;;2.45;1.20;;;9.70;99.90;;;;;;5032057;28;20081;-81
2023/04/15 05:42:06;;;;;;;2.63;1.33;;;9.80;99.90;;;;;;5028854;28;20124;-79
2023/04/15 05:44:33;;;;;;;2.83;1.30;;;9.80;99.90;;;;;;5030183;28;20038;-81
2023/04/15 05:46:59;;;;;;;3.40;1.02;;;9.80;99.90;;;;;;5030419;28;20436;-80
2023/04/15 05:49:26;;;;;;;3.13;1.10;;;9.80;99.90;;;;;;5026999;28;20042;-83
2023/04/15 05:51:53;;;;;;;3.15;1.23;;;9.80;99.90;;;;;;5023789;28;20049;-80
2023/04/15 05:54:22;;;;;;;3.50;1.13;;;9.90;99.90;;;;;;5024299;28;20493;-80
2023/04/15 05:56:48;;;;;;;2.53;1.10;;;9.90;99.90;;;;;;5028643;28;20088;-80
2023/04/15 05:59:15;;;;;;;3.80;1.17;;;9.80;99.90;;;;;;5032451;28;20066;-80
2023/04/15 06:01:42;;;;;;;4.53;2.30;;;9.80;99.90;;;;;;5026625;28;20161;-80
2023/04/15 06:04:10;;;;;;;5.55;2.00;;;9.80;99.90;;;;;;5028047;28;20041;-81
2023/04/15 06:06:37;;;;;;;6.13;2.00;;;9.90;99.90;;;;;;5031750;28;20484;-81
2023/04/15 06:09:04;;;;;;;2.22;1.90;;;9.90;99.90;;;;;;5027576;28;20129;-82
2023/04/15 06:11:31;;;;;;;3.90;1.98;;;9.90;99.90;;;;;;5031090;28;20045;-82
2023/04/15 06:13:57;;;;;;;1.88;1.20;;;10.00;99.90;;;;;;5035979;28;20099;-82
2023/04/15 06:16:24;;;;;;;2.40;1.60;;;10.00;99.90;;;;;;5023605;28;20045;-82
2023/04/15 06:18:51;;;;;;;2.58;1.40;;;10.00;99.90;;;;;;5030459;28;20132;-81
2023/04/15 06:21:18;;;;;;;3.13;1.10;;;10.00;99.90;;;;;;5033379;28;20081;-80
2023/04/15 06:23:45;;;;;;;2.38;1.17;;;10.00;99.90;;;;;;5034804;28;20081;-82
2023/04/15 06:26:11;;;;;;;2.67;1.10;;;10.10;99.90;;;;;;5029420;28;20124;-82
2023/04/15 06:28:38;;;;;;;2.72;1.20;;;10.10;99.90;;;;;;5020607;28;20069;-82
2023/04/15 06:31:05;;;;;;;3.60;1.30;;;10.20;99.90;;;;;;5032393;28;20100;-82
2023/04/15 06:33:32;;;;;;;4.38;1.52;;;10.20;99.90;;;;;;5027944;28;20543;-81
2023/04/15 06:35:58;;;;;;;2.50;1.52;;;10.30;99.90;;;;;;5028535;28;20073;-81
2023/04/15 06:38:25;;;;;;;2.25;1.42;;;10.30;99.90;;;;;;5032015;28;20042;-82
2023/04/15 06:40:52;;;;;;;3.63;1.42;;;10.40;99.90;;;;;;5023653;28;20068;-80
2023/04/15 06:43:19;;;;;;;4.78;1.77;;;10.50;99.90;;;;;;5023219;28;20046;-80
2023/04/15 06:45:46;;;;;;;2.13;1.52;;;10.50;99.90;;;;;;5033866;28;20490;-80
2023/04/15 06:48:12;;;;;;;3.38;1.58;;;10.60;99.90;;;;;;5026224;28;20060;-81
2023/04/15 06:50:40;;;;;;;6.00;2.00;;;10.60;99.90;;;;;;5024395;28;20109;-82
2023/04/15 06:53:06;;;;;;;5.63;1.70;;;10.70;99.90;;;;;;5030405;28;20073;-81
2023/04/15 06:55:33;;;;;;;2.83;1.52;;;10.70;99.90;;;;;;5028694;28;20117;-82
2023/04/15 06:58:00;;;;;;;4.32;1.70;;;10.80;99.90;;;;;;5030600;28;20046;-82
2023/04/15 07:00:27;;;;;;;2.53;1.60;;;10.80;99.90;;;;;;5025159;28;20073;-82
2023/04/15 07:02:54;;;;;;;6.20;1.70;;;10.90;99.90;;;;;;5027075;28;20120;-81
2023/04/15 07:05:21;;;;;;;4.38;1.65;;;10.90;99.90;;;;;;5031772;28;20089;-82
2023/04/15 07:07:48;;;;;;;3.13;1.55;;;11.00;99.90;;;;;;5024461;28;20045;-80
2023/04/15 07:10:15;;;;;;;2.70;1.98;;;11.10;99.90;;;;;;5025720;28;20042;-82
2023/04/15 07:12:41;;;;;;;6.30;3.63;;;11.10;99.90;;;;;;5029104;28;20061;-82
2023/04/15 07:15:08;;;;;;;3.13;1.63;;;11.20;99.90;;;;;;5030431;28;20037;-82
2023/04/15 07:17:35;;;;;;;2.28;1.20;;;11.30;99.90;;;;;;5030563;28;20045;-79
2023/04/15 07:20:03;;;;;;;2.97;1.27;;;11.40;99.90;;;;;;5035482;28;20121;-83
2023/04/15 07:22:30;;;;;;;2.70;1.10;;;11.40;99.90;;;;;;5032651;28;20073;-82
2023/04/15 07:24:57;;;;;;;4.72;1.67;;;11.50;99.90;;;;;;5026445;28;20080;-81
2023/04/15 07:27:23;;;;;;;3.60;1.55;;;11.60;99.90;;;;;;5029179;28;20049;-82
2023/04/15 07:29:51;;;;;;;5.68;2.00;;;11.70;99.90;;;;;;5023231;28;20106;-81
2023/04/15 07:32:18;;;;;;;3.33;1.63;;;11.70;99.90;;;;;;5027941;28;20049;-82
2023/04/15 07:34:45;;;;;;;2.83;1.63;;;11.80;99.90;;;;;;5031108;28;20065;-80
2023/04/15 07:37:12;;;;;;;5.10;1.90;;;11.90;99.90;;;;;;5029814;28;20046;-82
2023/04/15 07:39:39;;;;;;;2.30;1.45;;;12.00;99.90;;;;;;5033881;28;20073;-80
2023/04/15 07:42:06;;;;;;;2.25;1.58;;;12.00;99.90;;;;;;5029931;28;20054;-82
2023/04/15 07:44:32;;;;;;;3.97;1.52;;;12.10;99.90;;;;;;5035213;28;20073;-82
2023/04/15 07:47:01;;;;;;;7.57;1.80;;;12.20;99.90;;;;;;5036074;28;20092;-83
2023/04/15 07:49:28;;;;;;;2.65;1.25;;;12.30;99.90;;;;;;5052310;28;20030;-81
2023/04/15 07:51:56;;;;;;;3.15;1.50;;;12.30;99.90;;;;;;5047904;28;20048;-82
2023/04/15 07:54:23;;;;;;;3.08;1.63;;;12.30;99.90;;;;;;5048904;28;20058;-83
2023/04/15 07:56:50;;;;;;;3.35;1.40;;;12.40;99.90;;;;;;5053231;28;20045;-80
2023/04/15 07:59:17;;;;;;;3.30;1.50;;;12.40;99.90;;;;;;5033872;28;20128;-81
2023/04/15 08:01:43;;;;;;;5.13;1.30;;;12.40;99.90;;;;;;5031292;28;20046;-80
2023/04/15 08:04:10;;;;;;;4.05;1.52;;;12.50;99.90;;;;;;5029468;28;20050;-82
2023/04/15 08:06:38;;;;;;;2.80;1.02;;;12.60;99.90;;;;;;5033124;28;20117;-83
2023/04/15 08:09:07;;;;;;;5.35;1.60;;;12.60;99.90;;;;;;5036896;28;20079;-82
2023/04/15 08:11:33;;;;;;;3.38;1.27;;;12.70;99.90;;;;;;5027487;28;20054;-81
2023/04/15 08:14:00;;;;;;;4.85;1.40;;;12.60;99.90;;;;;;5033013;28;20049;-83
2023/04/15 08:16:28;;;;;;;2.42;1.40;;;12.70;99.90;;;;;;5027639;28;20046;-81
2023/04/15 08:18:55;;;;;;;4.88;1.30;;;12.70;99.90;;;;;;5030557;28;20049;-81
2023/04/15 08:21:22;;;;;;;3.55;1.23;;;12.70;99.90;;;;;;5031215;28;20084;-82
2023/04/15 08:23:51;;;;;;;3.17;1.35;;;12.70;99.90;;;;;;5025501;28;20058;-81
2023/04/15 08:26:19;;;;;;;8.38;1.90;;;12.70;99.90;;;;;;5026816;28;20490;-82
2023/04/15 08:28:46;;;;;;;5.07;1.45;;;12.70;99.90;;;;;;5033974;28;20056;-81
2023/04/15 08:31:15;;;;;;;2.35;1.35;;;12.80;99.90;;;;;;5025896;28;20132;-83
2023/04/15 08:33:41;;;;;;;2.65;1.67;;;12.90;99.90;;;;;;5031982;28;20046;-82
2023/04/15 08:36:08;;;;;;;5.40;1.95;;;12.90;99.90;;;;;;5035096;28;20049;-83
2023/04/15 08:38:36;;;;;;;4.90;1.70;;;13.00;99.90;;;;;;5033681;28;20804;-81
2023/04/15 08:41:25;;;;;;;3.38;2.20;;;13.10;99.90;;;;;;5027976;28;20049;-83
2023/04/15 08:44:02;;;;;;;4.03;1.67;;;13.00;99.90;;;;;;5031942;28;20054;-81
2023/04/15 08:46:31;;;;;;;5.85;2.20;;;12.90;99.90;;;;;;5025819;28;20065;-82
2023/04/15 08:48:58;;;;;;;7.55;2.28;;;12.90;99.90;;;;;;5029911;28;20045;-81
2023/04/15 08:51:26;;;;;;;4.78;2.13;;;12.80;99.90;;;;;;5032236;28;20052;-83
2023/04/15 08:53:52;;;;;;;2.40;1.95;;;12.80;99.90;;;;;;5024873;28;20045;-81
2023/04/15 08:56:23;;;;;;;4.72;1.83;;;12.70;99.90;;;;;;5035101;28;20091;-81
2023/04/15 08:58:51;;;;;;;4.25;2.78;;;12.50;99.90;;;;;;5034465;28;20103;-83
2023/04/15 09:01:18;;;;;;;5.68;1.80;;;12.60;99.90;;;;;;5036148;28;20109;-80
2023/04/15 09:03:47;;;;;;;5.28;2.15;;;12.30;99.90;;;;;;5031176;28;20041;-83
2023/04/15 09:06:16;;;;;;;2.90;1.85;;;12.30;99.90;;;;;;5032306;28;20839;-83
2023/04/15 09:08:43;;;;;;;4.40;2.10;;;12.20;99.90;;;;;;5026902;28;20084;-81
2023/04/15 09:11:11;;;;;;;3.85;2.33;;;12.20;99.90;;;;;;5024775;28;20069;-83
2023/04/15 09:13:38;;;;;;;5.40;2.38;;;12.20;99.90;;;;;;5029651;28;20041;-83
2023/04/15 09:16:05;;;;;;;4.78;1.95;;;12.10;99.90;;;;;;5033827;28;20128;-84
2023/04/15 09:18:34;;;;;;;3.83;1.70;;;12.20;99.90;;;;;;5027527;28;20455;-83
2023/04/15 09:21:10;;;;;;;2.25;1.50;;;12.20;99.90;;;;;;5029655;28;20049;-81
2023/04/15 09:23:38;;;;;;;4.97;1.63;;;12.30;99.90;;;;;;5037483;28;20099;-82
2023/04/15 09:26:05;;;;;;;4.65;1.38;;;12.30;99.90;;;;;;5043225;28;20048;-82
2023/04/15 09:28:34;;;;;;;3.92;1.25;;;12.40;99.90;;;;;;5031717;28;20103;-81
2023/04/15 09:31:01;;;;;;;5.28;1.60;;;12.40;99.90;;;;;;5025488;28;20181;-83
2023/04/15 09:33:29;;;;;;;4.57;2.25;;;12.50;99.90;;;;;;5024843;28;20576;-83
2023/04/15 09:36:00;;;;;;;4.95;1.13;;;12.50;99.90;;;;;;5033346;28;20053;-82
2023/04/15 09:38:27;;;;;;;3.53;1.65;;;12.50;99.90;;;;;;5029888;28;20081;-79
2023/04/15 09:40:54;;;;;;;5.38;1.40;;;12.60;99.90;;;;;;5024919;28;20054;-81
2023/04/15 09:43:22;;;;;;;4.10;1.50;;;12.60;99.90;;;;;;5025737;28;20045;-80
2023/04/15 09:45:50;;;;;;;1.90;1.15;;;12.60;99.90;;;;;;5022263;28;20128;-80
2023/04/15 09:48:20;;;;;;;3.42;1.40;;;12.60;99.90;;;;;;5025680;28;20045;-81
2023/04/15 09:50:48;;;;;;;5.80;1.57;;;12.70;99.90;;;;;;5023924;28;20126;-81
2023/04/15 09:53:18;;;;;;;2.22;1.38;;;12.70;99.90;;;;;;5043914;23;20044;-76
2023/04/15 09:55:49;;;;;;;3.60;1.40;;;12.80;99.90;;;;;;5018627;28;20133;-76
2023/04/15 09:58:24;;;;;;;3.72;1.77;;;12.80;99.90;;;;;;5021956;28;20106;-76
2023/04/15 10:00:53;;;;;;;2.80;1.48;;;12.60;99.90;;;;;;5020810;28;20129;-76
2023/04/15 10:03:30;;;;;;;3.03;1.50;;;12.80;99.90;;;;;;5036349;28;20132;-76
2023/04/15 10:05:59;;;;;;;5.43;1.45;;;12.80;99.90;;;;;;5008196;28;20425;-76
2023/04/15 10:08:31;;;;;;;4.55;1.90;;;12.90;99.90;;;;;;5006567;28;20077;-76
2023/04/15 10:11:00;;;;;;;3.97;1.50;;;12.90;99.90;;;;;;5008313;28;20416;-76
2023/04/15 10:13:32;;;;;;;6.30;2.60;;;13.00;99.90;;;;;;5009111;28;20038;-76
2023/04/15 10:16:05;;;;;;;6.78;1.80;;;13.10;99.90;;;;;;5010771;28;20433;-76
2023/04/15 10:18:36;;;;;;;6.35;1.80;;;13.10;99.90;;;;;;5005827;28;20451;-77
2023/04/15 10:21:04;;;;;;;4.22;1.80;;;13.10;99.90;;;;;;5009114;28;20578;-76
2023/04/15 10:23:32;;;;;;;3.53;1.88;;;13.10;99.90;;;;;;5011182;28;20205;-76
2023/04/15 10:26:00;;;;;;;1.90;1.70;;;13.10;99.90;;;;;;5002187;28;20078;-76
2023/04/15 10:28:27;;;;;;;4.45;2.40;;;13.10;99.90;;;;;;5005801;28;20593;-76
2023/04/15 10:30:54;;;;;;;4.50;2.20;;;13.20;99.90;;;;;;4997599;28;20050;-76
2023/04/15 10:33:24;;;;;;;6.10;2.50;;;13.30;99.90;;;;;;5009010;28;20041;-76
2023/04/15 10:35:54;;;;;;;4.97;2.30;;;13.40;99.90;;;;;;5010257;28;20133;-76
2023/04/15 10:38:34;;;;;;;4.30;2.28;;;13.40;99.90;;;;;;5009427;28;20042;-76
2023/04/15 10:41:22;;;;;;;6.28;2.50;;;13.60;99.90;;;;;;5002741;28;20051;-75
2023/04/15 10:43:53;;;;;;;5.90;2.13;;;13.60;99.90;;;;;;5009304;28;20085;-76
2023/04/15 10:46:35;;;;;;;3.38;2.33;;;13.50;99.90;;;;;;5008298;28;20069;-76
2023/04/15 10:49:24;;;;;;;4.75;2.67;;;13.70;99.90;;;;;;5001721;28;20054;-76
2023/04/15 10:51:55;;;;;;;6.00;2.28;;;13.70;99.90;;;;;;5026945;28;20617;-76
2023/04/15 10:54:25;;;;;;;5.53;2.83;;;13.80;99.90;;;;;;5005508;28;20138;-76
2023/04/15 10:57:13;;;;;;;4.57;1.80;;;13.90;99.90;;;;;;5011280;28;20139;-76
2023/04/15 10:59:59;;;;;;;6.45;2.20;;;14.00;99.90;;;;;;5008985;28;20129;-76
2023/04/15 11:02:50;;;;;;;4.18;2.10;;;14.10;99.90;;;;;;5006480;28;20132;-75
2023/04/15 11:05:18;;;;;;;3.33;1.90;;;14.10;99.90;;;;;;5007927;28;20046;-76
2023/04/15 11:07:45;;;;;;;5.13;2.33;;;14.10;99.90;;;;;;5009511;28;20440;-76
2023/04/15 11:10:24;;;;;;;6.82;2.20;;;14.10;99.90;;;;;;5007446;28;20042;-76
2023/04/15 11:12:55;;;;;;;5.78;2.03;;;14.10;99.90;;;;;;4999980;28;20105;-75
2023/04/15 11:15:30;;;;;;;5.82;2.25;;;14.20;99.90;;;;;;5007729;28;20466;-76
2023/04/15 11:18:17;;;;;;;4.43;1.88;;;14.20;99.90;;;;;;5003093;28;20055;-77
2023/04/15 11:20:58;;;;;;;6.88;2.22;;;14.30;99.90;;;;;;5008872;28;20129;-76
2023/04/15 11:23:32;;;;;;;4.65;2.00;;;14.30;99.90;;;;;;5016463;28;20128;-78
2023/04/15 11:26:00;;;;;;;3.25;1.90;;;14.30;99.90;;;;;;5013831;28;20045;-76
2023/04/15 11:28:29;;;;;;;5.18;2.05;;;14.30;99.90;;;;;;5014951;28;20068;-77
2023/04/15 11:30:56;;;;;;;5.53;2.20;;;14.20;99.90;;;;;;5012910;28;20052;-77
2023/04/15 11:33:24;;;;;;;4.68;2.28;;;14.20;99.90;;;;;;5014833;28;20050;-76
2023/04/15 11:35:55;;;;;;;7.80;2.47;;;14.20;99.90;;;;;;5014835;28;20136;-76
2023/04/15 11:38:21;;;;;;;;;;;14.20;99.90;;;;;;5010338;28;20453;-77
2023/04/15 11:40:51;;;;;;;5.93;2.55;;;14.20;99.90;;;;;;5013489;28;19926;-77
2023/04/15 11:43:19;;;;;;;7.00;1.67;;;14.20;99.90;;;;;;5007025;28;20097;-77
2023/04/15 11:45:48;;;;;;;4.65;2.55;;;14.20;99.90;;;;;;5012448;28;20049;-77
2023/04/15 11:48:15;;;;;;;5.10;2.08;;;14.30;99.90;;;;;;5011781;28;20502;-77
2023/04/15 11:50:41;;;;;;;4.28;2.25;;;14.30;99.90;;;;;;5012418;28;20043;-77
2023/04/15 11:53:09;;;;;;;4.15;2.00;;;14.30;99.90;;;;;;5013056;28;20149;-77
2023/04/15 11:55:43;;;;;;;5.65;1.77;;;14.40;99.90;;;;;;5007068;28;20490;-76
2023/04/15 11:58:15;;;;;;;4.43;1.60;;;14.50;99.90;;;;;;5012343;28;20497;-77
2023/04/15 12:00:53;;;;;;;3.15;1.50;;;14.40;99.90;;;;;;5007155;28;20054;-77
2023/04/15 12:03:23;;;;;;;7.50;1.83;;;14.50;99.90;;;;;;5013438;28;20517;-76
2023/04/15 12:06:23;;;;;;;2.67;1.30;;;14.40;99.90;;;;;;5013961;28;20042;-75
2023/04/15 12:08:59;;;;;;;3.67;1.40;;;14.40;99.90;;;;;;5011368;28;20056;-76
2023/04/15 12:11:25;;;;;;;4.20;1.80;;;14.50;99.90;;;;;;5006574;28;20053;-76
2023/04/15 12:14:21;;;;;;;2.40;1.30;;;14.40;99.90;;;;;;5012605;28;20050;-76
2023/04/15 12:16:50;;;;;;;3.08;1.20;;;14.50;99.90;;;;;;5014697;28;20537;-78
2023/04/15 12:19:28;;;;;;;;;;;14.50;99.90;;;;;;5010318;28;20521;-75
2023/04/15 12:22:00;;;;;;;3.15;1.45;;;14.60;99.90;;;;;;5015317;28;19929;-78
2023/04/15 12:24:29;;;;;;;5.57;1.90;;;14.70;99.90;;;;;;5012281;28;20096;-78
2023/04/15 12:27:00;;;;;;;3.70;1.80;;;14.80;99.90;;;;;;5015160;28;20471;-77
2023/04/15 12:29:29;;;;;;;5.38;1.90;;;14.80;99.90;;;;;;5013642;28;20081;-78
2023/04/15 12:31:57;;;;;;;2.97;1.55;;;14.80;99.90;;;;;;5011037;28;20136;-78
2023/04/15 12:34:33;;;;;;;5.95;1.60;;;14.90;99.90;;;;;;5013883;28;20077;-78
2023/04/15 12:37:02;;;;;;;4.68;2.60;;;15.00;99.90;;;;;;5014864;28;20053;-77
2023/04/15 12:39:31;;;;;;;5.82;1.50;;;15.20;99.90;;;;;;5007349;28;20134;-77
2023/04/15 12:41:59;;;;;;;2.08;1.00;;;15.20;99.90;;;;;;5011965;28;20085;-77
2023/04/15 12:44:26;;;;;;;2.53;1.42;;;15.40;99.90;;;;;;5013713;28;20077;-77
2023/04/15 12:46:54;;;;;;;6.00;1.33;;;15.50;99.90;;;;;;5009464;28;20104;-77
2023/04/15 12:49:21;;;;;;;3.58;1.30;;;15.60;99.90;;;;;;5008834;28;20050;-77
2023/04/15 12:51:49;;;;;;;2.75;1.10;;;15.70;99.90;;;;;;5011495;28;20466;-77
2023/04/15 12:54:16;;;;;;;6.43;1.73;;;15.70;99.90;;;;;;5010251;28;20097;-77
2023/04/15 12:56:45;;;;;;;4.60;1.60;;;15.80;99.90;;;;;;5012879;28;20573;-77
2023/04/15 12:59:12;;;;;;;2.33;1.45;;;15.80;99.90;;;;;;5010175;28;20444;-77